Portada
METAR-TAF:

METAR-TAF

Aeroports :

Montauk, Nova York, Estats Units d'Amèrica

latitud: 41-04-23N, longitud: 071-55-24W, altitud: 2 m

Observació

L'informe es va fer fa 36 minuts, a les 20:54 UTC
Vent 4 kt del Sud-Oest
Temperatura 17°C
Humitat 55%
Pressió 1018 hPa

METAR: KMTP 132054Z AUTO 23004KT 17/08 A3007 RMK AO1 SLP180 T01670078 55004

Hora: 17:30 (21:30 UTC)


TAF: manca

Observacions i pronòstics meteorològics de més de 4000 aeroports (METAR i TAF).

Les estacions disponibles són els punts grocs i vermells al mapa.

Posi el ratolí al punt desitjat per veure el nom de l'estació.

Feu clic per veure les observacions i els pronòstics meteorològics.

Per canviar el mapa: feu clic els botons verds amb una creu de color negre per apropar; al botó verd amb un guió per allunyar la imatge; o en les fletxes verdes per a mapes adjacents.


METAR-TAF: